sensor_id;sensor_type;location;lat;lon;timestamp;P1;durP1;ratioP1;P2;durP2;ratioP2
13345;SDS011;6742;48.036;15.780;2023-12-20T00:01:00;2.20;;;1.30;;
13345;SDS011;6742;48.036;15.780;2023-12-20T00:03:27;1.60;;;1.43;;
13345;SDS011;6742;48.036;15.780;2023-12-20T00:05:54;1.63;;;1.10;;
13345;SDS011;6742;48.036;15.780;2023-12-20T00:08:21;1.10;;;1.00;;
13345;SDS011;6742;48.036;15.780;2023-12-20T00:10:50;1.50;;;1.30;;
13345;SDS011;6742;48.036;15.780;2023-12-20T00:13:16;2.20;;;1.40;;
13345;SDS011;6742;48.036;15.780;2023-12-20T00:15:43;2.13;;;1.40;;
13345;SDS011;6742;48.036;15.780;2023-12-20T00:18:10;1.27;;;1.17;;
13345;SDS011;6742;48.036;15.780;2023-12-20T00:20:36;2.53;;;1.30;;
13345;SDS011;6742;48.036;15.780;2023-12-20T00:23:03;1.57;;;1.20;;
13345;SDS011;6742;48.036;15.780;2023-12-20T00:25:30;1.47;;;1.33;;
13345;SDS011;6742;48.036;15.780;2023-12-20T00:27:58;1.40;;;1.20;;
13345;SDS011;6742;48.036;15.780;2023-12-20T00:30:25;2.17;;;1.40;;
13345;SDS011;6742;48.036;15.780;2023-12-20T00:32:52;1.37;;;1.20;;
13345;SDS011;6742;48.036;15.780;2023-12-20T00:35:19;2.03;;;1.33;;
13345;SDS011;6742;48.036;15.780;2023-12-20T00:37:46;1.50;;;1.40;;
13345;SDS011;6742;48.036;15.780;2023-12-20T00:40:13;1.60;;;1.50;;
13345;SDS011;6742;48.036;15.780;2023-12-20T00:42:40;1.83;;;1.40;;
13345;SDS011;6742;48.036;15.780;2023-12-20T00:45:08;2.27;;;1.27;;
13345;SDS011;6742;48.036;15.780;2023-12-20T00:47:35;1.70;;;1.50;;
13345;SDS011;6742;48.036;15.780;2023-12-20T00:50:02;2.23;;;1.53;;
13345;SDS011;6742;48.036;15.780;2023-12-20T00:52:30;2.10;;;1.90;;
13345;SDS011;6742;48.036;15.780;2023-12-20T00:54:57;2.30;;;2.10;;
13345;SDS011;6742;48.036;15.780;2023-12-20T00:57:23;3.23;;;2.00;;
13345;SDS011;6742;48.036;15.780;2023-12-20T00:59:50;2.33;;;1.60;;
13345;SDS011;6742;48.036;15.780;2023-12-20T01:02:19;2.23;;;1.37;;
13345;SDS011;6742;48.036;15.780;2023-12-20T01:04:46;2.30;;;1.50;;
13345;SDS011;6742;48.036;15.780;2023-12-20T01:07:12;2.33;;;1.63;;
13345;SDS011;6742;48.036;15.780;2023-12-20T01:09:39;1.50;;;1.37;;
13345;SDS011;6742;48.036;15.780;2023-12-20T01:12:06;2.23;;;2.00;;
13345;SDS011;6742;48.036;15.780;2023-12-20T01:14:32;2.60;;;1.77;;
13345;SDS011;6742;48.036;15.780;2023-12-20T01:16:59;1.50;;;1.40;;
13345;SDS011;6742;48.036;15.780;2023-12-20T01:19:28;1.53;;;1.20;;
13345;SDS011;6742;48.036;15.780;2023-12-20T01:21:54;1.30;;;1.20;;
13345;SDS011;6742;48.036;15.780;2023-12-20T01:24:21;1.40;;;1.20;;
13345;SDS011;6742;48.036;15.780;2023-12-20T01:26:48;1.20;;;1.10;;
13345;SDS011;6742;48.036;15.780;2023-12-20T01:29:15;1.20;;;1.10;;
13345;SDS011;6742;48.036;15.780;2023-12-20T01:31:44;1.13;;;1.07;;
13345;SDS011;6742;48.036;15.780;2023-12-20T01:34:11;1.53;;;1.10;;
13345;SDS011;6742;48.036;15.780;2023-12-20T01:36:40;1.63;;;1.30;;
13345;SDS011;6742;48.036;15.780;2023-12-20T01:39:07;1.67;;;1.20;;
13345;SDS011;6742;48.036;15.780;2023-12-20T01:41:33;1.53;;;1.30;;
13345;SDS011;6742;48.036;15.780;2023-12-20T01:44:00;1.37;;;1.27;;
13345;SDS011;6742;48.036;15.780;2023-12-20T01:46:27;1.30;;;1.20;;
13345;SDS011;6742;48.036;15.780;2023-12-20T01:48:54;1.50;;;1.40;;
13345;SDS011;6742;48.036;15.780;2023-12-20T01:51:21;2.03;;;1.80;;
13345;SDS011;6742;48.036;15.780;2023-12-20T01:53:50;1.90;;;1.70;;
13345;SDS011;6742;48.036;15.780;2023-12-20T01:56:17;2.30;;;1.70;;
13345;SDS011;6742;48.036;15.780;2023-12-20T01:58:45;3.70;;;1.90;;
13345;SDS011;6742;48.036;15.780;2023-12-20T02:01:13;3.40;;;2.77;;
13345;SDS011;6742;48.036;15.780;2023-12-20T02:03:41;6.00;;;3.27;;
13345;SDS011;6742;48.036;15.780;2023-12-20T02:06:08;5.90;;;3.57;;
13345;SDS011;6742;48.036;15.780;2023-12-20T02:08:35;5.60;;;3.40;;
13345;SDS011;6742;48.036;15.780;2023-12-20T02:11:04;4.07;;;2.80;;
13345;SDS011;6742;48.036;15.780;2023-12-20T02:13:31;3.23;;;2.47;;
13345;SDS011;6742;48.036;15.780;2023-12-20T02:15:58;4.50;;;2.30;;
13345;SDS011;6742;48.036;15.780;2023-12-20T02:18:25;2.67;;;1.87;;
13345;SDS011;6742;48.036;15.780;2023-12-20T02:20:52;2.23;;;1.40;;
13345;SDS011;6742;48.036;15.780;2023-12-20T02:23:21;2.37;;;1.60;;
13345;SDS011;6742;48.036;15.780;2023-12-20T02:25:48;2.03;;;1.50;;
13345;SDS011;6742;48.036;15.780;2023-12-20T02:28:15;2.30;;;1.57;;
13345;SDS011;6742;48.036;15.780;2023-12-20T02:30:42;2.60;;;1.50;;
13345;SDS011;6742;48.036;15.780;2023-12-20T02:33:10;1.63;;;1.30;;
13345;SDS011;6742;48.036;15.780;2023-12-20T02:35:40;1.40;;;1.20;;
13345;SDS011;6742;48.036;15.780;2023-12-20T02:38:07;1.50;;;1.10;;
13345;SDS011;6742;48.036;15.780;2023-12-20T02:40:35;2.20;;;1.40;;
13345;SDS011;6742;48.036;15.780;2023-12-20T02:43:02;1.53;;;1.30;;
13345;SDS011;6742;48.036;15.780;2023-12-20T02:45:29;1.63;;;1.20;;
13345;SDS011;6742;48.036;15.780;2023-12-20T02:47:56;1.90;;;1.17;;
13345;SDS011;6742;48.036;15.780;2023-12-20T02:50:23;1.17;;;1.03;;
13345;SDS011;6742;48.036;15.780;2023-12-20T02:52:50;1.73;;;1.10;;
13345;SDS011;6742;48.036;15.780;2023-12-20T02:55:17;1.67;;;1.20;;
13345;SDS011;6742;48.036;15.780;2023-12-20T02:57:45;1.23;;;1.13;;
13345;SDS011;6742;48.036;15.780;2023-12-20T03:00:12;2.60;;;1.27;;
13345;SDS011;6742;48.036;15.780;2023-12-20T03:02:40;1.37;;;1.03;;
13345;SDS011;6742;48.036;15.780;2023-12-20T03:05:07;1.77;;;1.30;;
13345;SDS011;6742;48.036;15.780;2023-12-20T03:07:34;1.67;;;1.20;;
13345;SDS011;6742;48.036;15.780;2023-12-20T03:10:03;2.43;;;1.40;;
13345;SDS011;6742;48.036;15.780;2023-12-20T03:12:31;1.47;;;1.10;;
13345;SDS011;6742;48.036;15.780;2023-12-20T03:14:59;3.13;;;1.60;;
13345;SDS011;6742;48.036;15.780;2023-12-20T03:17:26;2.90;;;1.50;;
13345;SDS011;6742;48.036;15.780;2023-12-20T03:19:53;2.47;;;1.50;;
13345;SDS011;6742;48.036;15.780;2023-12-20T03:22:20;1.63;;;1.20;;
13345;SDS011;6742;48.036;15.780;2023-12-20T03:24:47;1.87;;;1.30;;
13345;SDS011;6742;48.036;15.780;2023-12-20T03:27:14;1.90;;;1.33;;
13345;SDS011;6742;48.036;15.780;2023-12-20T03:29:40;2.10;;;1.47;;
13345;SDS011;6742;48.036;15.780;2023-12-20T03:32:09;2.03;;;1.60;;
13345;SDS011;6742;48.036;15.780;2023-12-20T03:34:36;2.80;;;1.50;;
13345;SDS011;6742;48.036;15.780;2023-12-20T03:37:03;2.00;;;1.57;;
13345;SDS011;6742;48.036;15.780;2023-12-20T03:39:29;2.03;;;1.40;;
13345;SDS011;6742;48.036;15.780;2023-12-20T03:41:56;1.80;;;1.50;;
13345;SDS011;6742;48.036;15.780;2023-12-20T03:44:23;1.53;;;1.40;;
13345;SDS011;6742;48.036;15.780;2023-12-20T03:46:50;2.17;;;1.43;;
13345;SDS011;6742;48.036;15.780;2023-12-20T03:49:18;1.50;;;1.40;;
13345;SDS011;6742;48.036;15.780;2023-12-20T03:51:45;1.73;;;1.40;;
13345;SDS011;6742;48.036;15.780;2023-12-20T03:54:12;1.70;;;1.43;;
13345;SDS011;6742;48.036;15.780;2023-12-20T03:56:39;1.70;;;1.50;;
13345;SDS011;6742;48.036;15.780;2023-12-20T03:59:06;2.00;;;1.60;;
13345;SDS011;6742;48.036;15.780;2023-12-20T04:01:33;1.77;;;1.40;;
13345;SDS011;6742;48.036;15.780;2023-12-20T04:04:01;2.43;;;1.60;;
13345;SDS011;6742;48.036;15.780;2023-12-20T04:06:29;1.63;;;1.40;;
13345;SDS011;6742;48.036;15.780;2023-12-20T04:08:56;1.83;;;1.30;;
13345;SDS011;6742;48.036;15.780;2023-12-20T04:11:23;1.60;;;1.40;;
13345;SDS011;6742;48.036;15.780;2023-12-20T04:13:50;3.23;;;1.77;;
13345;SDS011;6742;48.036;15.780;2023-12-20T04:16:17;1.70;;;1.60;;
13345;SDS011;6742;48.036;15.780;2023-12-20T04:18:44;1.87;;;1.43;;
13345;SDS011;6742;48.036;15.780;2023-12-20T04:21:10;1.80;;;1.50;;
13345;SDS011;6742;48.036;15.780;2023-12-20T04:23:39;2.00;;;1.60;;
13345;SDS011;6742;48.036;15.780;2023-12-20T04:26:06;1.93;;;1.67;;
13345;SDS011;6742;48.036;15.780;2023-12-20T04:28:32;1.70;;;1.60;;
13345;SDS011;6742;48.036;15.780;2023-12-20T04:30:59;3.60;;;2.27;;
13345;SDS011;6742;48.036;15.780;2023-12-20T04:33:26;2.53;;;2.13;;
13345;SDS011;6742;48.036;15.780;2023-12-20T04:35:53;1.90;;;1.70;;
13345;SDS011;6742;48.036;15.780;2023-12-20T04:38:20;2.00;;;1.80;;
13345;SDS011;6742;48.036;15.780;2023-12-20T04:40:48;1.93;;;1.77;;
13345;SDS011;6742;48.036;15.780;2023-12-20T04:43:15;1.67;;;1.57;;
13345;SDS011;6742;48.036;15.780;2023-12-20T04:45:42;1.97;;;1.83;;
13345;SDS011;6742;48.036;15.780;2023-12-20T04:48:09;1.90;;;1.70;;
13345;SDS011;6742;48.036;15.780;2023-12-20T04:50:36;2.00;;;1.80;;
13345;SDS011;6742;48.036;15.780;2023-12-20T04:53:03;4.17;;;1.73;;
13345;SDS011;6742;48.036;15.780;2023-12-20T04:55:30;2.03;;;1.83;;
13345;SDS011;6742;48.036;15.780;2023-12-20T04:57:58;2.40;;;1.87;;
13345;SDS011;6742;48.036;15.780;2023-12-20T05:00:25;2.10;;;1.90;;
13345;SDS011;6742;48.036;15.780;2023-12-20T05:02:52;2.33;;;1.97;;
13345;SDS011;6742;48.036;15.780;2023-12-20T05:05:20;3.13;;;2.10;;
13345;SDS011;6742;48.036;15.780;2023-12-20T05:07:47;2.53;;;2.13;;
13345;SDS011;6742;48.036;15.780;2023-12-20T05:10:14;2.53;;;2.30;;
13345;SDS011;6742;48.036;15.780;2023-12-20T05:12:41;3.87;;;2.20;;
13345;SDS011;6742;48.036;15.780;2023-12-20T05:15:09;2.13;;;1.93;;
13345;SDS011;6742;48.036;15.780;2023-12-20T05:17:36;3.33;;;2.13;;
13345;SDS011;6742;48.036;15.780;2023-12-20T05:20:03;3.07;;;2.00;;
13345;SDS011;6742;48.036;15.780;2023-12-20T05:22:31;2.43;;;2.00;;
13345;SDS011;6742;48.036;15.780;2023-12-20T05:24:58;2.40;;;2.20;;
13345;SDS011;6742;48.036;15.780;2023-12-20T05:27:25;2.27;;;2.07;;
13345;SDS011;6742;48.036;15.780;2023-12-20T05:29:52;2.60;;;2.13;;
13345;SDS011;6742;48.036;15.780;2023-12-20T05:32:23;3.60;;;2.10;;
13345;SDS011;6742;48.036;15.780;2023-12-20T05:34:50;2.10;;;1.90;;
13345;SDS011;6742;48.036;15.780;2023-12-20T05:37:17;2.30;;;2.10;;
13345;SDS011;6742;48.036;15.780;2023-12-20T05:39:44;2.30;;;2.10;;
13345;SDS011;6742;48.036;15.780;2023-12-20T05:42:11;2.37;;;2.07;;
13345;SDS011;6742;48.036;15.780;2023-12-20T05:44:38;3.27;;;2.53;;
13345;SDS011;6742;48.036;15.780;2023-12-20T05:47:05;2.33;;;2.10;;
13345;SDS011;6742;48.036;15.780;2023-12-20T05:49:33;3.10;;;2.30;;
13345;SDS011;6742;48.036;15.780;2023-12-20T05:52:00;2.43;;;2.20;;
13345;SDS011;6742;48.036;15.780;2023-12-20T05:54:27;2.30;;;1.97;;
13345;SDS011;6742;48.036;15.780;2023-12-20T05:56:54;2.43;;;2.03;;
13345;SDS011;6742;48.036;15.780;2023-12-20T05:59:21;3.60;;;1.93;;
13345;SDS011;6742;48.036;15.780;2023-12-20T06:01:49;3.60;;;2.13;;
13345;SDS011;6742;48.036;15.780;2023-12-20T06:04:15;2.90;;;2.33;;
13345;SDS011;6742;48.036;15.780;2023-12-20T06:06:44;3.87;;;2.27;;
13345;SDS011;6742;48.036;15.780;2023-12-20T06:09:11;2.40;;;2.10;;
13345;SDS011;6742;48.036;15.780;2023-12-20T06:11:38;2.50;;;1.90;;
13345;SDS011;6742;48.036;15.780;2023-12-20T06:14:05;3.43;;;2.33;;
13345;SDS011;6742;48.036;15.780;2023-12-20T06:16:32;2.40;;;2.20;;
13345;SDS011;6742;48.036;15.780;2023-12-20T06:18:59;2.30;;;2.10;;
13345;SDS011;6742;48.036;15.780;2023-12-20T06:21:26;2.23;;;2.03;;
13345;SDS011;6742;48.036;15.780;2023-12-20T06:23:54;2.73;;;2.20;;
13345;SDS011;6742;48.036;15.780;2023-12-20T06:26:21;3.67;;;2.70;;
13345;SDS011;6742;48.036;15.780;2023-12-20T06:28:48;3.80;;;2.77;;
13345;SDS011;6742;48.036;15.780;2023-12-20T06:31:15;4.13;;;2.60;;
13345;SDS011;6742;48.036;15.780;2023-12-20T06:33:42;3.40;;;2.80;;
13345;SDS011;6742;48.036;15.780;2023-12-20T06:36:10;3.60;;;2.63;;
13345;SDS011;6742;48.036;15.780;2023-12-20T06:38:38;4.83;;;3.00;;
13345;SDS011;6742;48.036;15.780;2023-12-20T06:41:06;4.07;;;2.80;;
13345;SDS011;6742;48.036;15.780;2023-12-20T06:43:33;3.50;;;2.73;;
13345;SDS011;6742;48.036;15.780;2023-12-20T06:46:00;3.83;;;2.90;;
13345;SDS011;6742;48.036;15.780;2023-12-20T06:48:27;3.73;;;2.77;;
13345;SDS011;6742;48.036;15.780;2023-12-20T06:50:54;5.57;;;2.70;;
13345;SDS011;6742;48.036;15.780;2023-12-20T06:53:21;3.07;;;2.40;;
13345;SDS011;6742;48.036;15.780;2023-12-20T06:55:48;4.30;;;2.40;;
13345;SDS011;6742;48.036;15.780;2023-12-20T06:58:16;3.60;;;2.50;;
13345;SDS011;6742;48.036;15.780;2023-12-20T07:00:43;6.50;;;4.50;;
13345;SDS011;6742;48.036;15.780;2023-12-20T07:03:10;2.47;;;2.27;;
13345;SDS011;6742;48.036;15.780;2023-12-20T07:05:37;4.30;;;2.17;;
13345;SDS011;6742;48.036;15.780;2023-12-20T07:08:04;3.53;;;2.37;;
13345;SDS011;6742;48.036;15.780;2023-12-20T07:10:31;2.53;;;2.00;;
13345;SDS011;6742;48.036;15.780;2023-12-20T07:12:58;3.53;;;2.10;;
13345;SDS011;6742;48.036;15.780;2023-12-20T07:15:27;3.37;;;2.30;;
13345;SDS011;6742;48.036;15.780;2023-12-20T07:17:54;5.50;;;3.53;;
13345;SDS011;6742;48.036;15.780;2023-12-20T07:20:21;5.07;;;2.60;;
13345;SDS011;6742;48.036;15.780;2023-12-20T07:22:48;2.93;;;2.20;;
13345;SDS011;6742;48.036;15.780;2023-12-20T07:25:15;3.17;;;2.07;;
13345;SDS011;6742;48.036;15.780;2023-12-20T07:27:42;1.93;;;1.73;;
13345;SDS011;6742;48.036;15.780;2023-12-20T07:30:10;2.40;;;1.90;;
13345;SDS011;6742;48.036;15.780;2023-12-20T07:32:39;3.13;;;2.07;;
13345;SDS011;6742;48.036;15.780;2023-12-20T07:35:06;2.30;;;2.10;;
13345;SDS011;6742;48.036;15.780;2023-12-20T07:37:33;3.50;;;2.00;;
13345;SDS011;6742;48.036;15.780;2023-12-20T07:40:00;5.67;;;1.73;;
13345;SDS011;6742;48.036;15.780;2023-12-20T07:42:28;2.97;;;1.80;;
13345;SDS011;6742;48.036;15.780;2023-12-20T07:44:55;1.70;;;1.50;;
13345;SDS011;6742;48.036;15.780;2023-12-20T07:47:22;3.00;;;1.80;;
13345;SDS011;6742;48.036;15.780;2023-12-20T07:49:51;2.03;;;1.60;;
13345;SDS011;6742;48.036;15.780;2023-12-20T07:52:18;1.83;;;1.63;;
13345;SDS011;6742;48.036;15.780;2023-12-20T07:54:47;2.77;;;1.60;;
13345;SDS011;6742;48.036;15.780;2023-12-20T07:57:13;2.57;;;1.70;;
13345;SDS011;6742;48.036;15.780;2023-12-20T07:59:40;2.13;;;1.50;;
13345;SDS011;6742;48.036;15.780;2023-12-20T08:02:09;2.17;;;1.70;;
13345;SDS011;6742;48.036;15.780;2023-12-20T08:04:36;2.00;;;1.43;;
13345;SDS011;6742;48.036;15.780;2023-12-20T08:07:05;2.90;;;1.50;;
13345;SDS011;6742;48.036;15.780;2023-12-20T08:09:32;1.83;;;1.60;;
13345;SDS011;6742;48.036;15.780;2023-12-20T08:11:59;1.53;;;1.40;;
13345;SDS011;6742;48.036;15.780;2023-12-20T08:14:26;1.63;;;1.50;;
13345;SDS011;6742;48.036;15.780;2023-12-20T08:16:53;2.03;;;1.40;;
13345;SDS011;6742;48.036;15.780;2023-12-20T08:19:20;2.27;;;1.57;;
13345;SDS011;6742;48.036;15.780;2023-12-20T08:21:46;1.67;;;1.57;;
13345;SDS011;6742;48.036;15.780;2023-12-20T08:24:15;4.17;;;1.70;;
13345;SDS011;6742;48.036;15.780;2023-12-20T08:26:42;2.60;;;1.80;;
13345;SDS011;6742;48.036;15.780;2023-12-20T08:29:09;1.60;;;1.50;;
13345;SDS011;6742;48.036;15.780;2023-12-20T08:31:34;1.70;;;1.60;;
13345;SDS011;6742;48.036;15.780;2023-12-20T08:34:01;3.03;;;1.70;;
13345;SDS011;6742;48.036;15.780;2023-12-20T08:36:28;2.03;;;1.60;;
13345;SDS011;6742;48.036;15.780;2023-12-20T08:38:55;1.60;;;1.50;;
13345;SDS011;6742;48.036;15.780;2023-12-20T08:41:23;1.67;;;1.57;;
13345;SDS011;6742;48.036;15.780;2023-12-20T08:43:50;3.23;;;1.80;;
13345;SDS011;6742;48.036;15.780;2023-12-20T08:46:17;3.40;;;1.73;;
13345;SDS011;6742;48.036;15.780;2023-12-20T08:48:44;2.70;;;2.10;;
13345;SDS011;6742;48.036;15.780;2023-12-20T08:51:12;1.53;;;1.43;;
13345;SDS011;6742;48.036;15.780;2023-12-20T08:53:39;3.20;;;1.50;;
13345;SDS011;6742;48.036;15.780;2023-12-20T08:56:06;1.90;;;1.80;;
13345;SDS011;6742;48.036;15.780;2023-12-20T08:58:35;2.10;;;1.70;;
13345;SDS011;6742;48.036;15.780;2023-12-20T09:01:02;1.87;;;1.60;;
13345;SDS011;6742;48.036;15.780;2023-12-20T09:03:29;2.10;;;1.90;;
13345;SDS011;6742;48.036;15.780;2023-12-20T09:05:56;1.80;;;1.70;;
13345;SDS011;6742;48.036;15.780;2023-12-20T09:08:22;2.27;;;1.83;;
13345;SDS011;6742;48.036;15.780;2023-12-20T09:10:49;1.93;;;1.73;;
13345;SDS011;6742;48.036;15.780;2023-12-20T09:13:17;1.70;;;1.60;;
13345;SDS011;6742;48.036;15.780;2023-12-20T09:15:45;2.33;;;1.80;;
13345;SDS011;6742;48.036;15.780;2023-12-20T09:18:12;2.20;;;2.00;;
13345;SDS011;6742;48.036;15.780;2023-12-20T09:20:39;2.70;;;2.03;;
13345;SDS011;6742;48.036;15.780;2023-12-20T09:23:08;2.50;;;2.30;;
13345;SDS011;6742;48.036;15.780;2023-12-20T09:25:35;2.40;;;2.20;;
13345;SDS011;6742;48.036;15.780;2023-12-20T09:28:02;2.97;;;2.10;;
13345;SDS011;6742;48.036;15.780;2023-12-20T09:30:29;4.13;;;1.90;;
13345;SDS011;6742;48.036;15.780;2023-12-20T09:32:58;2.30;;;2.07;;
13345;SDS011;6742;48.036;15.780;2023-12-20T09:35:25;1.83;;;1.70;;
13345;SDS011;6742;48.036;15.780;2023-12-20T09:37:51;2.37;;;1.90;;
13345;SDS011;6742;48.036;15.780;2023-12-20T09:40:19;1.90;;;1.70;;
13345;SDS011;6742;48.036;15.780;2023-12-20T09:42:47;2.17;;;1.97;;
13345;SDS011;6742;48.036;15.780;2023-12-20T09:45:19;3.33;;;2.00;;
13345;SDS011;6742;48.036;15.780;2023-12-20T09:47:48;2.43;;;1.90;;
13345;SDS011;6742;48.036;15.780;2023-12-20T09:50:17;2.93;;;2.00;;
13345;SDS011;6742;48.036;15.780;2023-12-20T09:52:45;2.43;;;1.80;;
13345;SDS011;6742;48.036;15.780;2023-12-20T09:55:15;2.23;;;2.03;;
13345;SDS011;6742;48.036;15.780;2023-12-20T09:57:44;3.43;;;1.87;;
13345;SDS011;6742;48.036;15.780;2023-12-20T10:00:11;2.43;;;1.80;;
13345;SDS011;6742;48.036;15.780;2023-12-20T10:02:40;3.30;;;1.73;;
13345;SDS011;6742;48.036;15.780;2023-12-20T10:05:13;2.53;;;2.23;;
13345;SDS011;6742;48.036;15.780;2023-12-20T10:07:45;1.90;;;1.70;;
13345;SDS011;6742;48.036;15.780;2023-12-20T10:10:12;1.97;;;1.80;;
13345;SDS011;6742;48.036;15.780;2023-12-20T10:12:39;1.60;;;1.50;;
13345;SDS011;6742;48.036;15.780;2023-12-20T10:15:07;1.70;;;1.60;;
13345;SDS011;6742;48.036;15.780;2023-12-20T10:17:35;1.47;;;1.33;;
13345;SDS011;6742;48.036;15.780;2023-12-20T10:20:03;1.47;;;1.37;;
13345;SDS011;6742;48.036;15.780;2023-12-20T10:22:35;1.47;;;1.30;;
13345;SDS011;6742;48.036;15.780;2023-12-20T10:25:05;1.33;;;1.10;;
13345;SDS011;6742;48.036;15.780;2023-12-20T10:27:33;1.20;;;1.10;;
13345;SDS011;6742;48.036;15.780;2023-12-20T10:30:00;0.93;;;0.93;;
13345;SDS011;6742;48.036;15.780;2023-12-20T10:32:27;1.13;;;1.03;;
13345;SDS011;6742;48.036;15.780;2023-12-20T10:34:54;1.80;;;1.40;;
13345;SDS011;6742;48.036;15.780;2023-12-20T10:37:22;2.13;;;1.50;;
13345;SDS011;6742;48.036;15.780;2023-12-20T10:39:49;1.87;;;1.40;;
13345;SDS011;6742;48.036;15.780;2023-12-20T10:42:19;1.20;;;1.10;;
13345;SDS011;6742;48.036;15.780;2023-12-20T10:44:47;2.23;;;1.10;;
13345;SDS011;6742;48.036;15.780;2023-12-20T10:47:15;1.23;;;1.13;;
13345;SDS011;6742;48.036;15.780;2023-12-20T10:49:43;1.10;;;0.87;;
13345;SDS011;6742;48.036;15.780;2023-12-20T10:52:12;1.40;;;1.00;;
13345;SDS011;6742;48.036;15.780;2023-12-20T10:54:39;1.30;;;1.10;;
13345;SDS011;6742;48.036;15.780;2023-12-20T10:57:06;1.20;;;0.90;;
13345;SDS011;6742;48.036;15.780;2023-12-20T10:59:36;1.67;;;0.93;;
13345;SDS011;6742;48.036;15.780;2023-12-20T11:02:04;1.40;;;1.30;;
13345;SDS011;6742;48.036;15.780;2023-12-20T11:04:36;1.60;;;1.20;;
13345;SDS011;6742;48.036;15.780;2023-12-20T11:07:12;1.30;;;1.20;;
13345;SDS011;6742;48.036;15.780;2023-12-20T11:09:47;1.13;;;1.03;;
13345;SDS011;6742;48.036;15.780;2023-12-20T11:12:25;1.20;;;1.10;;
13345;SDS011;6742;48.036;15.780;2023-12-20T11:15:02;0.80;;;0.80;;
13345;SDS011;6742;48.036;15.780;2023-12-20T11:17:30;1.43;;;1.20;;
13345;SDS011;6742;48.036;15.780;2023-12-20T11:20:06;0.87;;;0.87;;
13345;SDS011;6742;48.036;15.780;2023-12-20T11:22:35;0.97;;;0.90;;
13345;SDS011;6742;48.036;15.780;2023-12-20T11:25:04;1.57;;;0.90;;
13345;SDS011;6742;48.036;15.780;2023-12-20T11:27:33;0.80;;;0.80;;
13345;SDS011;6742;48.036;15.780;2023-12-20T11:30:02;1.73;;;0.77;;
13345;SDS011;6742;48.036;15.780;2023-12-20T11:32:33;1.07;;;0.83;;
13345;SDS011;6742;48.036;15.780;2023-12-20T11:35:16;0.70;;;0.70;;
13345;SDS011;6742;48.036;15.780;2023-12-20T11:37:45;0.93;;;0.90;;
13345;SDS011;6742;48.036;15.780;2023-12-20T11:40:14;0.80;;;0.70;;
13345;SDS011;6742;48.036;15.780;2023-12-20T11:42:42;1.10;;;0.70;;
13345;SDS011;6742;48.036;15.780;2023-12-20T11:45:13;1.70;;;0.80;;
13345;SDS011;6742;48.036;15.780;2023-12-20T11:47:42;0.80;;;0.80;;
13345;SDS011;6742;48.036;15.780;2023-12-20T11:50:11;0.60;;;0.60;;
13345;SDS011;6742;48.036;15.780;2023-12-20T11:52:38;1.13;;;0.70;;
13345;SDS011;6742;48.036;15.780;2023-12-20T11:55:05;0.67;;;0.67;;
13345;SDS011;6742;48.036;15.780;2023-12-20T11:57:33;0.90;;;0.70;;
13345;SDS011;6742;48.036;15.780;2023-12-20T12:00:00;0.90;;;0.90;;
13345;SDS011;6742;48.036;15.780;2023-12-20T12:02:29;0.80;;;0.80;;
13345;SDS011;6742;48.036;15.780;2023-12-20T12:04:56;0.80;;;0.80;;
13345;SDS011;6742;48.036;15.780;2023-12-20T12:07:24;1.00;;;0.80;;
13345;SDS011;6742;48.036;15.780;2023-12-20T12:09:51;1.20;;;0.90;;
13345;SDS011;6742;48.036;15.780;2023-12-20T12:12:18;0.80;;;0.80;;
13345;SDS011;6742;48.036;15.780;2023-12-20T12:14:46;0.70;;;0.70;;
13345;SDS011;6742;48.036;15.780;2023-12-20T12:17:15;0.80;;;0.80;;
13345;SDS011;6742;48.036;15.780;2023-12-20T12:19:43;0.73;;;0.73;;
13345;SDS011;6742;48.036;15.780;2023-12-20T12:22:11;0.87;;;0.83;;
13345;SDS011;6742;48.036;15.780;2023-12-20T12:24:39;1.10;;;0.90;;
13345;SDS011;6742;48.036;15.780;2023-12-20T12:27:09;0.77;;;0.73;;
13345;SDS011;6742;48.036;15.780;2023-12-20T12:29:36;0.73;;;0.73;;
13345;SDS011;6742;48.036;15.780;2023-12-20T12:32:04;0.80;;;0.70;;
13345;SDS011;6742;48.036;15.780;2023-12-20T12:34:32;1.40;;;1.00;;
13345;SDS011;6742;48.036;15.780;2023-12-20T12:37:01;0.80;;;0.80;;
13345;SDS011;6742;48.036;15.780;2023-12-20T12:39:29;0.70;;;0.70;;
13345;SDS011;6742;48.036;15.780;2023-12-20T12:41:56;0.70;;;0.70;;
13345;SDS011;6742;48.036;15.780;2023-12-20T12:44:23;0.90;;;0.70;;
13345;SDS011;6742;48.036;15.780;2023-12-20T12:46:52;0.70;;;0.70;;
13345;SDS011;6742;48.036;15.780;2023-12-20T12:49:19;0.70;;;0.70;;
13345;SDS011;6742;48.036;15.780;2023-12-20T12:51:47;0.70;;;0.70;;
13345;SDS011;6742;48.036;15.780;2023-12-20T12:54:15;0.80;;;0.80;;
13345;SDS011;6742;48.036;15.780;2023-12-20T12:56:43;0.80;;;0.80;;
13345;SDS011;6742;48.036;15.780;2023-12-20T12:59:12;0.80;;;0.70;;
13345;SDS011;6742;48.036;15.780;2023-12-20T13:01:39;0.80;;;0.80;;
13345;SDS011;6742;48.036;15.780;2023-12-20T13:04:06;0.77;;;0.77;;
13345;SDS011;6742;48.036;15.780;2023-12-20T13:06:35;1.03;;;1.00;;
13345;SDS011;6742;48.036;15.780;2023-12-20T13:09:03;1.17;;;0.70;;
13345;SDS011;6742;48.036;15.780;2023-12-20T13:11:32;2.07;;;1.00;;
13345;SDS011;6742;48.036;15.780;2023-12-20T13:14:00;1.00;;;0.90;;
13345;SDS011;6742;48.036;15.780;2023-12-20T13:16:28;0.83;;;0.70;;
13345;SDS011;6742;48.036;15.780;2023-12-20T13:18:55;0.87;;;0.80;;
13345;SDS011;6742;48.036;15.780;2023-12-20T13:21:24;0.80;;;0.70;;
13345;SDS011;6742;48.036;15.780;2023-12-20T13:23:51;1.17;;;0.93;;
13345;SDS011;6742;48.036;15.780;2023-12-20T13:26:19;0.83;;;0.83;;
13345;SDS011;6742;48.036;15.780;2023-12-20T13:28:47;1.30;;;0.90;;
13345;SDS011;6742;48.036;15.780;2023-12-20T13:31:14;0.90;;;0.90;;
13345;SDS011;6742;48.036;15.780;2023-12-20T13:33:41;0.90;;;0.90;;
13345;SDS011;6742;48.036;15.780;2023-12-20T13:36:08;1.07;;;0.77;;
13345;SDS011;6742;48.036;15.780;2023-12-20T13:38:35;0.83;;;0.70;;
13345;SDS011;6742;48.036;15.780;2023-12-20T13:41:02;1.60;;;1.00;;
13345;SDS011;6742;48.036;15.780;2023-12-20T13:43:29;1.53;;;0.70;;
13345;SDS011;6742;48.036;15.780;2023-12-20T13:45:59;0.70;;;0.70;;
13345;SDS011;6742;48.036;15.780;2023-12-20T13:48:26;0.70;;;0.70;;
13345;SDS011;6742;48.036;15.780;2023-12-20T13:50:53;0.87;;;0.80;;
13345;SDS011;6742;48.036;15.780;2023-12-20T13:53:20;1.07;;;0.80;;
13345;SDS011;6742;48.036;15.780;2023-12-20T13:55:47;0.97;;;0.80;;
13345;SDS011;6742;48.036;15.780;2023-12-20T13:58:14;1.03;;;0.90;;
13345;SDS011;6742;48.036;15.780;2023-12-20T14:00:42;1.10;;;1.00;;
13345;SDS011;6742;48.036;15.780;2023-12-20T14:03:10;1.03;;;1.00;;
13345;SDS011;6742;48.036;15.780;2023-12-20T14:05:37;1.10;;;1.00;;
13345;SDS011;6742;48.036;15.780;2023-12-20T14:08:04;0.80;;;0.80;;
13345;SDS011;6742;48.036;15.780;2023-12-20T14:10:31;1.00;;;0.90;;
13345;SDS011;6742;48.036;15.780;2023-12-20T14:12:58;1.37;;;1.10;;
13345;SDS011;6742;48.036;15.780;2023-12-20T14:15:25;0.80;;;0.80;;
13345;SDS011;6742;48.036;15.780;2023-12-20T14:17:52;1.13;;;0.90;;
13345;SDS011;6742;48.036;15.780;2023-12-20T14:20:21;0.70;;;0.70;;
13345;SDS011;6742;48.036;15.780;2023-12-20T14:22:48;0.97;;;0.87;;
13345;SDS011;6742;48.036;15.780;2023-12-20T14:25:15;1.07;;;0.90;;
13345;SDS011;6742;48.036;15.780;2023-12-20T14:27:42;1.00;;;0.90;;
13345;SDS011;6742;48.036;15.780;2023-12-20T14:30:10;1.27;;;1.10;;
13345;SDS011;6742;48.036;15.780;2023-12-20T14:32:39;0.90;;;0.90;;
13345;SDS011;6742;48.036;15.780;2023-12-20T14:35:06;1.37;;;1.20;;
13345;SDS011;6742;48.036;15.780;2023-12-20T14:37:35;1.47;;;1.30;;
13345;SDS011;6742;48.036;15.780;2023-12-20T14:40:04;1.00;;;0.90;;
13345;SDS011;6742;48.036;15.780;2023-12-20T14:42:35;1.40;;;1.30;;
13345;SDS011;6742;48.036;15.780;2023-12-20T14:45:03;2.50;;;1.20;;
13345;SDS011;6742;48.036;15.780;2023-12-20T14:47:30;1.10;;;1.00;;
13345;SDS011;6742;48.036;15.780;2023-12-20T14:49:57;1.10;;;1.00;;